createdAt,value
2023-05-20T00:00:54.953Z,2.53
2023-05-20T00:03:22.952Z,3.87
2023-05-20T00:05:50.686Z,4.32
2023-05-20T00:08:19.241Z,3.65
2023-05-20T00:10:47.140Z,2.70
2023-05-20T00:13:14.595Z,3.40
2023-05-20T00:15:42.109Z,3.03
2023-05-20T00:18:09.988Z,3.05
2023-05-20T00:20:37.580Z,3.20
2023-05-20T00:23:05.164Z,3.50
2023-05-20T00:25:33.166Z,4.75
2023-05-20T00:28:00.818Z,4.22
2023-05-20T00:30:28.934Z,3.60
2023-05-20T00:32:56.690Z,4.12
2023-05-20T00:35:24.305Z,4.68
2023-05-20T00:37:51.820Z,2.62
2023-05-20T00:40:20.934Z,3.47
2023-05-20T00:42:48.478Z,4.40
2023-05-20T00:45:16.359Z,3.17
2023-05-20T00:47:44.501Z,3.45
2023-05-20T00:50:12.086Z,3.40
2023-05-20T00:52:41.624Z,3.00
2023-05-20T00:55:09.534Z,3.15
2023-05-20T00:57:37.066Z,4.00
2023-05-20T01:00:05.942Z,3.03
2023-05-20T01:02:33.731Z,3.83
2023-05-20T01:05:01.492Z,4.00
2023-05-20T01:07:29.132Z,2.50
2023-05-20T01:09:57.083Z,2.70
2023-05-20T01:12:32.252Z,3.20
2023-05-20T01:15:11.929Z,2.72
2023-05-20T01:17:51.818Z,3.35
2023-05-20T01:20:21.163Z,2.83
2023-05-20T01:22:57.046Z,3.70
2023-05-20T01:25:26.441Z,2.62
2023-05-20T01:27:55.874Z,2.78
2023-05-20T01:30:28.300Z,3.30
2023-05-20T01:33:01.862Z,3.00
2023-05-20T01:35:31.107Z,2.25
2023-05-20T01:38:00.285Z,3.10
2023-05-20T01:40:28.010Z,3.15
2023-05-20T01:42:56.278Z,3.42
2023-05-20T01:45:25.052Z,3.62
2023-05-20T01:47:52.696Z,3.22
2023-05-20T01:50:20.216Z,3.10
2023-05-20T01:52:47.953Z,2.37
2023-05-20T01:55:15.582Z,3.03
2023-05-20T01:57:43.230Z,4.10
2023-05-20T02:00:11.418Z,3.70
2023-05-20T02:02:41.004Z,3.83
2023-05-20T02:05:10.671Z,3.97
2023-05-20T02:07:38.137Z,3.92
2023-05-20T02:10:06.376Z,3.08
2023-05-20T02:12:35.035Z,3.92
2023-05-20T02:15:02.630Z,3.00
2023-05-20T02:17:31.900Z,5.10
2023-05-20T02:19:59.731Z,3.67
2023-05-20T02:22:28.449Z,4.20
2023-05-20T02:24:56.026Z,3.72
2023-05-20T02:27:23.491Z,3.70
2023-05-20T02:29:51.334Z,3.80
2023-05-20T02:32:20.768Z,4.00
2023-05-20T02:34:48.261Z,4.07
2023-05-20T02:37:16.589Z,4.15
2023-05-20T02:39:44.028Z,3.03
2023-05-20T02:42:12.313Z,3.17
2023-05-20T02:44:40.197Z,4.57
2023-05-20T02:47:07.840Z,4.68
2023-05-20T02:49:35.319Z,3.60
2023-05-20T02:52:04.382Z,3.70
2023-05-20T02:54:31.845Z,3.70
2023-05-20T02:56:59.396Z,4.30
2023-05-20T02:59:27.180Z,3.80
2023-05-20T03:01:54.654Z,3.67
2023-05-20T03:04:22.641Z,2.80
2023-05-20T03:06:52.144Z,4.35
2023-05-20T03:09:20.013Z,3.15
2023-05-20T03:11:48.432Z,2.90
2023-05-20T03:14:16.306Z,3.35
2023-05-20T03:16:44.750Z,3.85
2023-05-20T03:19:13.050Z,3.83
2023-05-20T03:21:41.321Z,4.43
2023-05-20T03:24:09.088Z,4.53
2023-05-20T03:26:37.790Z,3.95
2023-05-20T03:29:05.669Z,3.83
2023-05-20T03:31:33.546Z,4.28
2023-05-20T03:34:01.240Z,3.08
2023-05-20T03:36:29.352Z,3.42
2023-05-20T03:38:57.241Z,3.22
2023-05-20T03:41:24.812Z,3.03
2023-05-20T03:43:52.614Z,3.05
2023-05-20T03:46:20.623Z,4.03
2023-05-20T03:48:48.194Z,3.42
2023-05-20T03:51:15.977Z,3.85
2023-05-20T03:53:43.801Z,3.35
2023-05-20T03:56:11.413Z,3.12
2023-05-20T03:58:39.654Z,2.83
2023-05-20T04:01:07.237Z,3.35
2023-05-20T04:03:35.285Z,2.75
2023-05-20T04:06:04.490Z,3.78
2023-05-20T04:08:32.498Z,4.05
2023-05-20T04:11:00.292Z,3.40
2023-05-20T04:13:27.917Z,3.37
2023-05-20T04:15:55.510Z,3.53
2023-05-20T04:18:23.331Z,3.37
2023-05-20T04:20:54.938Z,2.92
2023-05-20T04:23:23.621Z,3.50
2023-05-20T04:25:51.325Z,4.22
2023-05-20T04:28:18.955Z,2.55
2023-05-20T04:30:46.736Z,3.22
2023-05-20T04:33:14.984Z,3.62
2023-05-20T04:35:42.922Z,4.03
2023-05-20T04:38:10.726Z,3.58
2023-05-20T04:40:40.251Z,3.25
2023-05-20T04:43:08.060Z,3.28
2023-05-20T04:45:36.798Z,3.20
2023-05-20T04:48:06.176Z,3.42
2023-05-20T04:50:37.953Z,3.30
2023-05-20T04:53:08.906Z,2.97
2023-05-20T04:55:37.438Z,2.80
2023-05-20T04:58:05.802Z,2.72
2023-05-20T05:00:33.689Z,3.78
2023-05-20T05:03:01.548Z,2.97
2023-05-20T05:05:29.067Z,3.62
2023-05-20T05:07:56.769Z,3.75
2023-05-20T05:10:25.280Z,5.07
2023-05-20T05:12:52.846Z,2.80
2023-05-20T05:15:20.652Z,3.10
2023-05-20T05:17:48.330Z,3.25
2023-05-20T05:20:16.070Z,3.03
2023-05-20T05:22:44.527Z,3.12
2023-05-20T05:25:12.608Z,3.97
2023-05-20T05:27:40.611Z,3.65
2023-05-20T05:30:08.947Z,3.03
2023-05-20T05:32:37.779Z,2.92
2023-05-20T05:35:08.050Z,3.30
2023-05-20T05:37:36.230Z,3.83
2023-05-20T05:40:04.867Z,3.47
2023-05-20T05:42:32.332Z,3.95
2023-05-20T05:45:00.127Z,3.70
2023-05-20T05:47:32.399Z,3.33
2023-05-20T05:50:00.705Z,3.62
2023-05-20T05:52:29.128Z,3.37
2023-05-20T05:54:57.395Z,3.90
2023-05-20T05:57:25.404Z,4.18
2023-05-20T05:59:53.641Z,3.78
2023-05-20T06:02:22.469Z,4.37
2023-05-20T06:04:50.485Z,4.40
2023-05-20T06:07:18.784Z,3.92
2023-05-20T06:09:46.482Z,4.28
2023-05-20T06:12:14.278Z,3.97
2023-05-20T06:14:42.030Z,3.62
2023-05-20T06:17:09.885Z,3.95
2023-05-20T06:19:37.923Z,3.85
2023-05-20T06:22:05.609Z,5.37
2023-05-20T06:24:34.428Z,3.80
2023-05-20T06:27:03.254Z,4.55
2023-05-20T06:29:31.019Z,4.07
2023-05-20T06:31:58.481Z,4.25
2023-05-20T06:34:26.814Z,4.50
2023-05-20T06:36:54.389Z,5.35
2023-05-20T06:39:21.913Z,4.22
2023-05-20T06:41:49.812Z,4.30
2023-05-20T06:44:19.392Z,3.33
2023-05-20T06:46:49.939Z,4.85
2023-05-20T06:49:17.526Z,3.55
2023-05-20T06:51:45.550Z,3.62
2023-05-20T06:54:13.272Z,4.12
2023-05-20T06:56:42.333Z,4.12
2023-05-20T06:59:09.915Z,5.18
2023-05-20T07:01:38.433Z,4.87
2023-05-20T07:04:06.020Z,4.78
2023-05-20T07:06:33.865Z,4.40
2023-05-20T07:09:01.949Z,4.95
2023-05-20T07:11:29.597Z,3.85
2023-05-20T07:13:57.259Z,4.53
2023-05-20T07:16:25.536Z,3.83
2023-05-20T07:18:53.834Z,5.35
2023-05-20T07:21:21.467Z,5.40
2023-05-20T07:23:50.421Z,4.93
2023-05-20T07:26:18.389Z,5.68
2023-05-20T07:28:47.186Z,3.90
2023-05-20T07:31:15.584Z,4.28
2023-05-20T07:33:43.122Z,4.68
2023-05-20T07:36:11.394Z,4.25
2023-05-20T07:38:41.104Z,5.43
2023-05-20T07:41:09.207Z,4.87
2023-05-20T07:43:36.760Z,4.15
2023-05-20T07:46:04.864Z,5.45
2023-05-20T07:48:32.441Z,5.50
2023-05-20T07:50:59.911Z,3.90
2023-05-20T07:53:28.103Z,3.95
2023-05-20T07:55:56.578Z,5.37
2023-05-20T07:58:25.176Z,5.25
2023-05-20T08:00:53.108Z,4.65
2023-05-20T08:03:22.507Z,5.68
2023-05-20T08:05:50.473Z,5.30
2023-05-20T08:08:18.555Z,6.62
2023-05-20T08:10:47.606Z,5.22
2023-05-20T08:13:15.133Z,4.25
2023-05-20T08:15:43.025Z,4.78
2023-05-20T08:18:11.461Z,4.90
2023-05-20T08:20:38.962Z,4.37
2023-05-20T08:23:06.535Z,5.05
2023-05-20T08:25:34.650Z,4.85
2023-05-20T08:28:04.076Z,4.75
2023-05-20T08:30:31.929Z,4.35
2023-05-20T08:33:00.407Z,4.15
2023-05-20T08:35:28.910Z,4.95
2023-05-20T08:37:56.382Z,3.95
2023-05-20T08:40:24.316Z,5.03
2023-05-20T08:42:54.946Z,3.70
2023-05-20T08:45:27.886Z,4.30
2023-05-20T08:47:56.403Z,4.53
2023-05-20T08:50:23.910Z,4.90
2023-05-20T08:52:51.818Z,4.70
2023-05-20T08:55:26.969Z,5.80
2023-05-20T09:00:27.350Z,4.62
2023-05-20T09:02:57.022Z,3.90
2023-05-20T09:05:25.913Z,4.10
2023-05-20T09:07:53.549Z,4.55
2023-05-20T09:10:21.080Z,5.60
2023-05-20T09:12:49.284Z,4.00
2023-05-20T09:15:16.917Z,5.20
2023-05-20T09:17:44.376Z,4.60
2023-05-20T09:20:12.557Z,4.97
2023-05-20T09:22:40.150Z,5.72
2023-05-20T09:25:08.074Z,6.37
2023-05-20T09:27:36.224Z,4.53
2023-05-20T09:30:07.270Z,4.87
2023-05-20T09:32:34.725Z,5.80
2023-05-20T09:35:04.435Z,5.10
2023-05-20T09:37:35.044Z,4.53
2023-05-20T09:40:07.206Z,4.37
2023-05-20T09:42:54.956Z,4.90
2023-05-20T09:45:23.127Z,5.60
2023-05-20T09:47:52.326Z,5.35
2023-05-20T09:50:23.674Z,5.37
2023-05-20T09:52:52.787Z,4.70
2023-05-20T09:55:23.434Z,5.05
2023-05-20T09:57:51.962Z,5.55
2023-05-20T10:00:19.757Z,6.47
2023-05-20T10:02:51.735Z,5.00
2023-05-20T10:05:24.217Z,5.55
2023-05-20T10:07:52.206Z,4.70
2023-05-20T10:10:52.604Z,5.62
2023-05-20T10:13:23.299Z,5.72
2023-05-20T10:16:24.469Z,5.47
2023-05-20T10:18:58.218Z,6.85
2023-05-20T10:21:26.205Z,5.30
2023-05-20T10:23:54.116Z,6.43
2023-05-20T10:26:22.518Z,6.55
2023-05-20T10:28:50.043Z,5.25
2023-05-20T10:31:21.977Z,5.37
2023-05-20T10:33:52.045Z,6.35
2023-05-20T10:36:26.961Z,6.82
2023-05-20T10:41:29.557Z,8.00
2023-05-20T10:44:04.712Z,6.18
2023-05-20T10:46:46.275Z,5.87
2023-05-20T10:49:24.155Z,7.00
2023-05-20T10:51:55.599Z,6.20
2023-05-20T10:54:23.441Z,6.28
2023-05-20T10:56:53.043Z,4.95
2023-05-20T10:59:24.146Z,5.90
2023-05-20T11:01:51.936Z,6.72
2023-05-20T11:04:19.830Z,7.18
2023-05-20T11:06:53.621Z,6.10
2023-05-20T11:09:21.226Z,6.55
2023-05-20T11:11:51.512Z,6.25
2023-05-20T11:14:20.222Z,5.55
2023-05-20T11:16:52.263Z,5.18
2023-05-20T11:19:21.580Z,5.75
2023-05-20T11:21:49.339Z,6.35
2023-05-20T11:24:27.071Z,6.50
2023-05-20T11:26:56.237Z,5.62
2023-05-20T11:29:23.772Z,4.40
2023-05-20T11:31:52.227Z,5.18
2023-05-20T11:34:26.329Z,4.60
2023-05-20T11:36:58.869Z,4.87
2023-05-20T11:39:30.067Z,6.07
2023-05-20T11:41:58.423Z,6.72
2023-05-20T11:44:26.469Z,6.22
2023-05-20T11:47:00.529Z,7.10
2023-05-20T11:49:28.700Z,6.43
2023-05-20T11:51:57.184Z,6.60
2023-05-20T11:54:24.906Z,5.22
2023-05-20T11:56:54.395Z,4.50
2023-05-20T11:59:24.253Z,6.43
2023-05-20T12:01:51.730Z,6.35
2023-05-20T12:04:19.635Z,5.43
2023-05-20T12:06:47.269Z,7.00
2023-05-20T12:09:14.818Z,5.40
2023-05-20T12:11:44.616Z,5.70
2023-05-20T12:14:12.193Z,5.60
2023-05-20T12:16:39.770Z,7.05
2023-05-20T12:19:08.833Z,5.55
2023-05-20T12:21:36.642Z,6.03
2023-05-20T12:24:06.885Z,4.93
2023-05-20T12:26:35.597Z,6.07
2023-05-20T12:29:03.321Z,6.18
2023-05-20T12:31:33.116Z,6.18
2023-05-20T12:34:01.633Z,7.25
2023-05-20T12:36:29.209Z,6.40
2023-05-20T12:38:56.757Z,5.57
2023-05-20T12:41:24.704Z,5.93
2023-05-20T12:43:52.228Z,6.28
2023-05-20T12:46:19.801Z,6.93
2023-05-20T12:48:48.621Z,5.65
2023-05-20T12:51:16.170Z,5.82
2023-05-20T12:53:43.652Z,5.55
2023-05-20T12:56:11.533Z,5.32
2023-05-20T12:58:39.012Z,5.03
2023-05-20T13:01:06.606Z,5.07
2023-05-20T13:03:34.398Z,6.35
2023-05-20T13:06:02.020Z,5.22
2023-05-20T13:08:29.516Z,5.80
2023-05-20T13:10:57.342Z,6.47
2023-05-20T13:13:24.903Z,6.12
2023-05-20T13:15:52.436Z,6.65
2023-05-20T13:18:20.308Z,7.30
2023-05-20T13:20:47.805Z,7.37
2023-05-20T13:23:15.345Z,7.30
2023-05-20T13:25:43.117Z,7.18
2023-05-20T13:28:12.632Z,7.60
2023-05-20T13:30:40.173Z,7.70
2023-05-20T13:33:08.061Z,7.10
2023-05-20T13:35:36.385Z,6.75
2023-05-20T13:38:03.893Z,6.60
2023-05-20T13:40:31.716Z,5.85
2023-05-20T13:42:59.145Z,5.40
2023-05-20T13:45:27.575Z,6.43
2023-05-20T13:47:55.402Z,6.10
2023-05-20T13:50:23.225Z,6.10
2023-05-20T13:52:50.696Z,5.55
2023-05-20T13:55:18.573Z,4.85
2023-05-20T13:57:46.731Z,5.28
2023-05-20T14:00:14.731Z,7.03
2023-05-20T14:02:42.641Z,5.35
2023-05-20T14:05:10.724Z,5.55
2023-05-20T14:07:38.314Z,6.75
2023-05-20T14:10:07.219Z,6.43
2023-05-20T14:12:34.687Z,5.68
2023-05-20T14:15:02.173Z,5.50
2023-05-20T14:17:30.014Z,5.90
2023-05-20T14:19:57.714Z,7.18
2023-05-20T14:22:25.216Z,6.65
2023-05-20T14:24:52.967Z,6.60
2023-05-20T14:27:20.511Z,6.55
2023-05-20T14:29:47.957Z,5.97
2023-05-20T14:32:15.714Z,6.57
2023-05-20T14:34:43.342Z,8.10
2023-05-20T14:37:11.976Z,8.30
2023-05-20T14:39:39.858Z,7.30
2023-05-20T14:42:07.529Z,7.18
2023-05-20T14:44:34.944Z,5.07
2023-05-20T14:47:03.463Z,5.93
2023-05-20T14:49:31.691Z,7.68
2023-05-20T14:51:59.152Z,7.53
2023-05-20T14:54:27.765Z,6.37
2023-05-20T14:56:55.307Z,5.43
2023-05-20T14:59:22.803Z,5.78
2023-05-20T15:01:50.718Z,6.37
2023-05-20T15:04:18.183Z,5.00
2023-05-20T15:06:45.677Z,6.20
2023-05-20T15:09:13.747Z,7.15
2023-05-20T15:11:41.209Z,4.95
2023-05-20T15:14:08.722Z,5.20
2023-05-20T15:16:37.006Z,5.75
2023-05-20T15:19:04.599Z,5.70
2023-05-20T15:21:32.201Z,5.68
2023-05-20T15:23:59.918Z,5.53
2023-05-20T15:26:27.884Z,7.03
2023-05-20T15:28:55.455Z,5.93
2023-05-20T15:31:23.743Z,5.47
2023-05-20T15:33:51.254Z,5.62
2023-05-20T15:36:18.737Z,5.87
2023-05-20T15:38:46.572Z,7.00
2023-05-20T15:41:14.868Z,6.75
2023-05-20T15:43:43.494Z,6.05
2023-05-20T15:46:12.600Z,5.82
2023-05-20T15:48:41.518Z,7.50
2023-05-20T15:51:10.071Z,7.35
2023-05-20T15:53:40.090Z,6.80
2023-05-20T15:56:09.094Z,7.10
2023-05-20T15:58:37.196Z,5.15
2023-05-20T16:01:06.791Z,5.87
2023-05-20T16:03:35.223Z,5.32
2023-05-20T16:06:03.943Z,4.97
2023-05-20T16:08:34.339Z,5.28
2023-05-20T16:11:02.738Z,6.85
2023-05-20T16:13:31.452Z,7.03
2023-05-20T16:16:00.365Z,5.82
2023-05-20T16:18:30.133Z,6.35
2023-05-20T16:20:59.021Z,5.22
2023-05-20T16:23:27.497Z,5.28
2023-05-20T16:25:56.470Z,5.97
2023-05-20T16:28:26.089Z,6.35
2023-05-20T16:30:54.578Z,6.70
2023-05-20T16:33:22.873Z,6.65
2023-05-20T16:35:50.483Z,5.70
2023-05-20T16:38:18.577Z,7.12
2023-05-20T16:40:47.264Z,5.47
2023-05-20T16:43:16.138Z,6.37
2023-05-20T16:45:45.047Z,6.30
2023-05-20T16:48:13.850Z,5.00
2023-05-20T16:50:43.557Z,5.05
2023-05-20T16:53:11.652Z,5.32
2023-05-20T16:55:39.959Z,5.45
2023-05-20T16:58:07.921Z,5.25
2023-05-20T17:00:35.673Z,6.47
2023-05-20T17:03:04.323Z,6.22
2023-05-20T17:05:31.933Z,6.30
2023-05-20T17:08:00.789Z,5.12
2023-05-20T17:10:29.574Z,4.82
2023-05-20T17:12:57.760Z,5.75
2023-05-20T17:15:25.664Z,6.00
2023-05-20T17:17:53.486Z,6.05
2023-05-20T17:20:21.032Z,6.25
2023-05-20T17:22:48.523Z,6.65
2023-05-20T17:25:16.273Z,7.22
2023-05-20T17:27:43.796Z,5.65
2023-05-20T17:30:11.582Z,4.75
2023-05-20T17:32:40.585Z,5.40
2023-05-20T17:35:08.544Z,6.62
2023-05-20T17:37:36.968Z,5.30
2023-05-20T17:40:07.810Z,5.97
2023-05-20T17:42:35.697Z,5.28
2023-05-20T17:45:03.326Z,5.07
2023-05-20T17:47:31.534Z,5.82
2023-05-20T17:50:00.086Z,5.65
2023-05-20T17:52:27.560Z,5.45
2023-05-20T17:54:55.586Z,5.53
2023-05-20T17:57:23.105Z,5.37
2023-05-20T17:59:50.953Z,5.97
2023-05-20T18:02:18.780Z,4.97
2023-05-20T18:04:46.673Z,4.65
2023-05-20T18:07:14.442Z,4.28
2023-05-20T18:09:41.926Z,4.03
2023-05-20T18:12:09.705Z,4.87
2023-05-20T18:14:37.183Z,5.40
2023-05-20T18:17:04.887Z,4.78
2023-05-20T18:19:33.983Z,4.28
2023-05-20T18:22:02.821Z,6.03
2023-05-20T18:24:30.681Z,5.95
2023-05-20T18:26:58.476Z,5.97
2023-05-20T18:29:27.142Z,6.35
2023-05-20T18:31:54.638Z,4.55
2023-05-20T18:34:22.435Z,5.07
2023-05-20T18:36:50.013Z,7.10
2023-05-20T18:39:20.723Z,5.35
2023-05-20T18:41:48.586Z,6.18
2023-05-20T18:44:17.074Z,6.93
2023-05-20T18:46:44.966Z,4.68
2023-05-20T18:49:13.082Z,4.82
2023-05-20T18:51:41.105Z,5.90
2023-05-20T18:54:08.662Z,6.82
2023-05-20T18:56:36.495Z,6.82
2023-05-20T18:59:03.956Z,5.55
2023-05-20T19:01:33.829Z,6.43
2023-05-20T19:04:02.059Z,8.13
2023-05-20T19:06:29.607Z,7.28
2023-05-20T19:08:57.103Z,16.80
2023-05-20T19:11:24.862Z,23.40
2023-05-20T19:13:52.314Z,7.55
2023-05-20T19:16:20.137Z,9.20
2023-05-20T19:18:47.991Z,7.78
2023-05-20T19:21:16.480Z,5.97
2023-05-20T19:23:43.982Z,4.82
2023-05-20T19:26:11.886Z,5.43
2023-05-20T19:28:39.374Z,6.72
2023-05-20T19:31:07.267Z,6.75
2023-05-20T19:33:35.014Z,4.87
2023-05-20T19:36:02.758Z,4.97
2023-05-20T19:38:30.215Z,4.90
2023-05-20T19:40:58.231Z,4.97
2023-05-20T19:43:25.730Z,5.60
2023-05-20T19:45:53.624Z,5.75
2023-05-20T19:48:22.429Z,5.43
2023-05-20T19:50:50.717Z,5.70
2023-05-20T19:53:19.941Z,5.25
2023-05-20T19:55:47.946Z,5.25
2023-05-20T19:58:15.498Z,5.28
2023-05-20T20:00:43.295Z,5.22
2023-05-20T20:03:11.348Z,6.62
2023-05-20T20:05:39.350Z,4.35
2023-05-20T20:08:07.260Z,5.55
2023-05-20T20:10:37.543Z,5.65
2023-05-20T20:13:05.561Z,5.65
2023-05-20T20:15:33.372Z,5.25
2023-05-20T20:18:02.921Z,7.18
2023-05-20T20:20:31.212Z,6.87
2023-05-20T20:22:58.749Z,5.22
2023-05-20T20:25:26.878Z,5.97
2023-05-20T20:27:54.573Z,5.32
2023-05-20T20:30:22.062Z,4.18
2023-05-20T20:32:49.843Z,4.45
2023-05-20T20:35:17.344Z,5.82
2023-05-20T20:37:45.136Z,7.65
2023-05-20T20:40:16.412Z,5.78
2023-05-20T20:42:45.312Z,7.20
2023-05-20T20:45:13.210Z,6.15
2023-05-20T20:47:41.749Z,5.85
2023-05-20T20:50:11.582Z,5.25
2023-05-20T20:52:39.955Z,5.95
2023-05-20T20:55:07.757Z,5.25
2023-05-20T20:57:35.329Z,5.75
2023-05-20T21:00:17.736Z,4.50
2023-05-20T21:02:45.280Z,4.82
2023-05-20T21:05:16.838Z,4.87
2023-05-20T21:07:49.693Z,5.10
2023-05-20T21:10:17.873Z,5.07
2023-05-20T21:12:45.618Z,6.30
2023-05-20T21:15:14.909Z,5.47
2023-05-20T21:17:42.709Z,4.30
2023-05-20T21:20:10.882Z,4.82
2023-05-20T21:22:38.354Z,4.53
2023-05-20T21:25:06.696Z,5.97
2023-05-20T21:27:34.186Z,5.20
2023-05-20T21:30:01.755Z,4.07
2023-05-20T21:32:30.587Z,5.87
2023-05-20T21:34:58.437Z,5.05
2023-05-20T21:37:26.048Z,5.25
2023-05-20T21:39:53.781Z,5.72
2023-05-20T21:42:21.335Z,4.78
2023-05-20T21:44:48.805Z,6.05
2023-05-20T21:47:16.916Z,4.62
2023-05-20T21:49:44.636Z,5.30
2023-05-20T21:52:12.145Z,4.87
2023-05-20T21:54:40.289Z,5.12
2023-05-20T21:57:07.788Z,5.57
2023-05-20T21:59:35.281Z,6.20
2023-05-20T22:02:03.107Z,5.12
2023-05-20T22:04:33.352Z,5.28
2023-05-20T22:07:00.978Z,5.12
2023-05-20T22:09:28.647Z,6.28
2023-05-20T22:11:56.528Z,4.87
2023-05-20T22:14:24.140Z,4.75
2023-05-20T22:16:51.638Z,4.40
2023-05-20T22:19:19.484Z,5.03
2023-05-20T22:21:50.821Z,4.22
2023-05-20T22:24:18.982Z,6.45
2023-05-20T22:26:46.484Z,4.12
2023-05-20T22:29:14.028Z,5.55
2023-05-20T22:31:41.768Z,4.82
2023-05-20T22:34:09.239Z,5.35
2023-05-20T22:36:37.473Z,5.18
2023-05-20T22:39:06.991Z,4.85
2023-05-20T22:41:34.550Z,5.15
2023-05-20T22:44:02.913Z,4.90
2023-05-20T22:46:30.710Z,4.87
2023-05-20T22:48:58.474Z,5.72
2023-05-20T22:51:25.987Z,6.22
2023-05-20T22:53:53.733Z,5.22
2023-05-20T22:56:21.342Z,4.68
2023-05-20T22:58:48.816Z,4.72
2023-05-20T23:01:16.855Z,4.80
2023-05-20T23:03:44.970Z,4.55
2023-05-20T23:06:12.813Z,4.87
2023-05-20T23:08:42.912Z,3.60
2023-05-20T23:11:10.767Z,5.62
2023-05-20T23:13:38.229Z,5.10
2023-05-20T23:16:06.098Z,4.40
2023-05-20T23:18:33.660Z,4.32
2023-05-20T23:21:01.239Z,4.90
2023-05-20T23:23:31.857Z,5.47
2023-05-20T23:26:00.169Z,4.68
2023-05-20T23:28:27.756Z,5.55
2023-05-20T23:30:55.540Z,3.97
2023-05-20T23:33:25.484Z,5.57
2023-05-20T23:35:53.481Z,3.80
2023-05-20T23:38:21.541Z,3.97
2023-05-20T23:40:49.471Z,5.45
2023-05-20T23:43:17.023Z,4.45
2023-05-20T23:45:44.822Z,4.22
2023-05-20T23:48:13.669Z,5.12
2023-05-20T23:50:41.268Z,5.07
2023-05-20T23:53:09.098Z,4.32
2023-05-20T23:55:36.931Z,4.20
2023-05-20T23:58:04.683Z,3.45
